Time;durP1;ratioP1;P1;durP2;ratioP2;P2;SDS_P1;SDS_P2;PMS_P1;PMS_P2;Temp;Humidity;BMP_temperature;BMP_pressure;BME280_temperature;BME280_humidity;BME280_pressure;Samples;Min_cycle;Max_cycle;Signal;HPM_P1;HPM_P2
2023/08/01 00:00:05;;;;;;;4.65;3.45;;;;;;;21.95;52.73;98349.94;5125986;28;20195;-68
2023/08/01 00:02:32;;;;;;;5.78;3.35;;;;;;;21.90;53.18;98348.81;5108895;28;20114;-69
2023/08/01 00:04:59;;;;;;;4.72;3.03;;;;;;;21.67;53.54;98325.34;5125869;28;20039;-70
2023/08/01 00:07:28;;;;;;;4.32;3.30;;;;;;;21.93;53.14;98341.19;5126455;28;20092;-69
2023/08/01 00:09:54;;;;;;;4.85;2.95;;;;;;;21.86;53.94;98342.94;5125033;28;20249;-70
2023/08/01 00:12:21;;;;;;;4.25;2.90;;;;;;;21.90;53.64;98341.56;5125025;28;20304;-70
2023/08/01 00:14:48;;;;;;;5.18;3.20;;;;;;;21.87;53.62;98332.97;5126137;28;20115;-69
2023/08/01 00:17:15;;;;;;;5.15;3.28;;;;;;;21.86;54.35;98340.25;5126092;28;20204;-70
2023/08/01 00:19:46;;;;;;;4.93;3.00;;;;;;;21.87;54.21;98338.38;5124872;28;20093;-69
2023/08/01 00:22:14;;;;;;;4.05;3.03;;;;;;;21.82;54.41;98325.44;5124860;28;20036;-70
2023/08/01 00:24:44;;;;;;;5.13;2.70;;;;;;;21.78;54.95;98318.69;5124819;28;20046;-69
2023/08/01 00:27:12;;;;;;;4.78;2.85;;;;;;;21.72;55.02;98312.16;5125671;28;20047;-70
2023/08/01 00:29:39;;;;;;;4.10;3.28;;;;;;;21.71;55.60;98309.66;5125710;28;20051;-70
2023/08/01 00:32:07;;;;;;;4.15;3.28;;;;;;;21.71;55.19;98298.88;5125998;28;20219;-70
2023/08/01 00:34:33;;;;;;;5.50;3.67;;;;;;;21.66;55.94;98298.56;5125831;28;20067;-70
2023/08/01 00:37:00;;;;;;;6.47;3.25;;;;;;;21.70;55.61;98289.09;5125409;28;20108;-70
2023/08/01 00:39:27;;;;;;;4.97;3.65;;;;;;;21.68;55.27;98285.75;5126168;28;20093;-69
2023/08/01 00:41:55;;;;;;;4.10;3.00;;;;;;;21.62;55.60;98276.53;5127841;28;20306;-70
2023/08/01 00:44:22;;;;;;;4.60;3.10;;;;;;;21.58;56.08;98272.50;5129873;28;20054;-70
2023/08/01 00:46:51;;;;;;;4.05;3.28;;;;;;;21.61;55.54;98263.22;5128458;28;20047;-70
2023/08/01 00:49:18;;;;;;;3.40;2.83;;;;;;;21.59;55.27;98267.94;5129299;28;20196;-70
2023/08/01 00:51:47;;;;;;;4.60;3.28;;;;;;;21.45;55.43;98239.94;5129108;27;20242;-70
2023/08/01 00:54:15;;;;;;;5.03;2.88;;;;;;;21.53;55.48;98258.72;5128288;28;20047;-70
2023/08/01 00:56:42;;;;;;;4.93;3.03;;;;;;;21.53;55.22;98271.38;5129713;27;20040;-70
2023/08/01 00:59:11;;;;;;;4.10;2.85;;;;;;;21.46;55.42;98261.31;5128181;28;20039;-70
2023/08/01 01:01:38;;;;;;;7.55;3.05;;;;;;;21.48;55.02;98261.13;5128130;28;20093;-70
2023/08/01 01:04:06;;;;;;;3.90;2.65;;;;;;;21.53;55.12;98256.03;5128958;28;20043;-69
2023/08/01 01:06:35;;;;;;;4.50;2.92;;;;;;;21.48;55.44;98249.50;5128894;28;20284;-70
2023/08/01 01:09:04;;;;;;;3.90;2.85;;;;;;;21.48;55.40;98249.50;5129415;28;20059;-69
2023/08/01 01:11:31;;;;;;;5.07;2.55;;;;;;;21.39;55.43;98237.94;5128879;28;20119;-70
2023/08/01 01:13:58;;;;;;;3.90;2.50;;;;;;;21.36;56.11;98243.69;5128810;28;20047;-70
2023/08/01 01:16:26;;;;;;;4.13;2.85;;;;;;;21.37;55.81;98238.13;5129310;28;20051;-70
2023/08/01 01:18:53;;;;;;;4.53;3.50;;;;;;;21.24;56.17;98216.34;5127910;28;20039;-70
2023/08/01 01:21:21;;;;;;;4.38;3.17;;;;;;;21.31;56.34;98232.63;5127820;28;20076;-70
2023/08/01 01:23:49;;;;;;;4.78;2.92;;;;;;;21.31;56.34;98230.78;5128591;28;20058;-70
2023/08/01 01:26:20;;;;;;;5.97;3.13;;;;;;;21.12;56.80;98215.91;5128765;28;20065;-70
2023/08/01 01:28:48;;;;;;;4.07;2.72;;;;;;;21.25;56.84;98233.34;5127693;28;20074;-69
2023/08/01 01:31:16;;;;;;;4.40;2.80;;;;;;;21.19;57.33;98229.50;5129044;28;20100;-69
2023/08/01 01:33:43;;;;;;;4.93;3.25;;;;;;;21.11;56.70;98205.31;5128694;28;20062;-69
2023/08/01 01:36:10;;;;;;;3.85;2.78;;;;;;;21.32;56.49;98232.44;5128361;28;20035;-69
2023/08/01 01:38:38;;;;;;;5.38;2.92;;;;;;;21.31;56.26;98225.38;5128215;28;20063;-69
2023/08/01 01:41:05;;;;;;;6.38;3.67;;;;;;;21.17;57.02;98226.16;5128566;28;20237;-69
2023/08/01 01:43:32;;;;;;;5.72;2.88;;;;;;;21.04;57.67;98225.91;5128499;28;20051;-69
2023/08/01 01:45:58;;;;;;;4.03;2.85;;;;;;;21.12;56.95;98229.38;5128374;28;20104;-69
2023/08/01 01:48:25;;;;;;;5.07;3.38;;;;;;;21.08;57.38;98225.38;5128421;28;20291;-69
2023/08/01 01:50:52;;;;;;;4.18;2.60;;;;;;;21.11;56.91;98224.19;5128094;27;20292;-69
2023/08/01 01:53:18;;;;;;;6.05;3.28;;;;;;;21.05;57.34;98216.81;5128088;28;20062;-69
2023/08/01 01:55:46;;;;;;;4.63;2.78;;;;;;;21.04;57.30;98221.34;5128279;28;20061;-69
2023/08/01 01:58:13;;;;;;;3.60;2.55;;;;;;;21.04;57.30;98221.34;5127989;28;20050;-69
2023/08/01 02:00:40;;;;;;;5.43;3.05;;;;;;;21.01;58.01;98218.16;5128211;28;20051;-69
2023/08/01 02:03:10;;;;;;;5.20;3.50;;;;;;;21.00;58.04;98213.78;5127051;28;20217;-69
2023/08/01 02:05:36;;;;;;;4.60;3.22;;;;;;;20.99;58.19;98196.78;5128051;28;20224;-69
2023/08/01 02:08:04;;;;;;;4.72;2.80;;;;;;;21.04;56.86;98204.34;5128039;28;20047;-69
2023/08/01 02:10:31;;;;;;;5.05;3.05;;;;;;;20.43;56.93;98098.38;5128293;28;20249;-69
2023/08/01 02:12:59;;;;;;;5.93;3.30;;;;;;;21.03;57.22;98178.44;5127962;28;20291;-69
2023/08/01 02:15:26;;;;;;;4.60;2.90;;;;;;;20.95;57.01;98178.47;5126767;28;20074;-69
2023/08/01 02:17:53;;;;;;;3.15;2.30;;;;;;;21.03;56.48;98186.53;5127868;27;20039;-68
2023/08/01 02:20:19;;;;;;;4.10;2.70;;;;;;;21.00;56.66;98182.28;5127839;28;20040;-69
2023/08/01 02:22:46;;;;;;;4.18;2.90;;;;;;;20.98;57.15;98180.78;5127194;28;20207;-69
2023/08/01 02:25:13;;;;;;;4.22;3.10;;;;;;;20.96;57.63;98180.97;5127669;28;20043;-69
2023/08/01 02:27:39;;;;;;;5.63;2.88;;;;;;;20.99;57.50;98187.84;5127342;28;20051;-69
2023/08/01 02:30:09;;;;;;;4.68;2.78;;;;;;;21.02;57.52;98176.72;5127312;28;20040;-69
2023/08/01 02:32:36;;;;;;;4.65;2.50;;;;;;;21.01;57.48;98177.75;5126961;28;20279;-69
2023/08/01 02:35:03;;;;;;;4.15;2.85;;;;;;;21.02;57.22;98177.59;5127496;28;20055;-69
2023/08/01 02:37:30;;;;;;;3.78;2.88;;;;;;;21.05;56.63;98179.09;5127111;28;20096;-69
2023/08/01 02:39:56;;;;;;;4.20;2.22;;;;;;;21.07;56.40;98177.06;5127945;28;20048;-69
2023/08/01 02:42:23;;;;;;;4.10;2.70;;;;;;;21.05;56.07;98168.31;5127066;28;20040;-69
2023/08/01 02:44:50;;;;;;;5.28;2.42;;;;;;;21.03;56.58;98171.19;5127044;28;20036;-69
2023/08/01 02:47:18;;;;;;;3.88;3.00;;;;;;;21.04;56.48;98161.25;5126631;28;20047;-69
2023/08/01 02:49:45;;;;;;;4.68;2.85;;;;;;;21.00;56.75;98159.91;5126126;28;20291;-69
2023/08/01 02:52:11;;;;;;;3.67;2.78;;;;;;;20.87;57.62;98170.44;5126944;28;20043;-69
2023/08/01 02:54:38;;;;;;;4.47;2.83;;;;;;;20.72;57.96;98163.13;5125980;28;20246;-69
2023/08/01 02:57:05;;;;;;;4.82;3.17;;;;;;;20.81;57.53;98162.06;5127108;28;20040;-69
2023/08/01 02:59:33;;;;;;;3.50;2.70;;;;;;;20.92;57.31;98165.34;5127278;28;20036;-69
2023/08/01 03:02:00;;;;;;;3.78;2.65;;;;;;;20.98;57.00;98153.88;5127251;28;20200;-69
2023/08/01 03:04:28;;;;;;;4.25;3.10;;;;;;;20.99;57.11;98153.69;5126402;28;20051;-69
2023/08/01 03:06:55;;;;;;;4.30;3.42;;;;;;;20.91;57.51;98150.22;5126853;28;20100;-69
2023/08/01 03:09:21;;;;;;;3.88;2.88;;;;;;;20.99;56.79;98150.16;5126917;28;20184;-69
2023/08/01 03:11:48;;;;;;;4.78;2.83;;;;;;;20.96;56.89;98148.66;5126767;28;20039;-69
2023/08/01 03:14:16;;;;;;;4.55;2.75;;;;;;;20.96;56.93;98145.13;5126450;28;20046;-69
2023/08/01 03:16:43;;;;;;;4.80;3.15;;;;;;;20.94;57.04;98147.16;5126735;28;20096;-69
2023/08/01 03:19:10;;;;;;;3.55;2.33;;;;;;;20.89;57.11;98141.47;5126729;28;20233;-69
2023/08/01 03:21:38;;;;;;;3.92;2.67;;;;;;;20.92;56.76;98141.97;5126431;28;20047;-69
2023/08/01 03:24:08;;;;;;;4.60;2.75;;;;;;;20.52;57.02;98083.84;5126616;28;20053;-69
2023/08/01 03:26:35;;;;;;;5.78;3.45;;;;;;;20.94;56.98;98133.69;5125362;28;20089;-69
2023/08/01 03:29:02;;;;;;;3.45;2.53;;;;;;;20.88;57.58;98135.25;5126600;28;20050;-69
2023/08/01 03:31:29;;;;;;;4.03;2.85;;;;;;;20.70;57.61;98113.16;5126580;28;20093;-69
2023/08/01 03:33:58;;;;;;;5.10;3.40;;;;;;;20.83;57.19;98133.09;5126544;28;20221;-70
2023/08/01 03:36:24;;;;;;;3.90;3.00;;;;;;;20.86;56.96;98128.38;5126495;28;20062;-70
2023/08/01 03:38:53;;;;;;;4.25;3.05;;;;;;;20.89;56.67;98128.84;5125959;28;20067;-70
2023/08/01 03:41:19;;;;;;;4.35;3.10;;;;;;;20.89;56.80;98136.94;5126392;28;20100;-69
2023/08/01 03:43:46;;;;;;;4.20;3.10;;;;;;;20.81;57.10;98137.81;5126633;28;20059;-69
2023/08/01 03:46:13;;;;;;;5.03;3.88;;;;;;;20.84;57.24;98147.41;5126249;28;20054;-70
2023/08/01 03:48:39;;;;;;;3.85;2.88;;;;;;;20.87;57.14;98140.81;5125851;28;20368;-69
2023/08/01 03:51:06;;;;;;;5.88;3.10;;;;;;;20.90;56.82;98145.84;5125634;28;20043;-69
2023/08/01 03:53:33;;;;;;;3.67;2.70;;;;;;;20.85;57.08;98143.69;5125145;28;20122;-70
2023/08/01 03:56:01;;;;;;;3.45;2.80;;;;;;;20.88;56.84;98147.88;5126209;28;20203;-70
2023/08/01 03:58:28;;;;;;;4.47;2.90;;;;;;;20.86;57.46;98148.06;5125984;28;20063;-70
2023/08/01 04:00:55;;;;;;;5.13;2.80;;;;;;;20.90;57.72;98156.63;5125317;28;20043;-70
2023/08/01 04:03:22;;;;;;;4.55;3.22;;;;;;;20.70;58.00;98115.84;5125943;28;20044;-70
2023/08/01 04:05:49;;;;;;;3.95;3.08;;;;;;;20.89;58.42;98149.56;5126079;28;20035;-69
2023/08/01 04:08:15;;;;;;;4.50;3.00;;;;;;;20.75;59.38;98146.63;5125010;28;20048;-70
2023/08/01 04:10:42;;;;;;;3.90;2.70;;;;;;;20.74;59.66;98149.47;5124992;28;20206;-70
2023/08/01 04:13:10;;;;;;;5.45;2.80;;;;;;;20.82;59.61;98150.28;5125043;28;20046;-69
2023/08/01 04:15:37;;;;;;;5.63;3.03;;;;;;;20.70;59.60;98121.25;5127825;28;20054;-69
2023/08/01 04:18:03;;;;;;;10.85;4.43;;;;;;;20.85;60.01;98143.69;5130234;28;20043;-69
2023/08/01 04:20:30;;;;;;;4.80;3.70;;;;;;;20.89;59.47;98146.88;5129907;28;20044;-69
2023/08/01 04:22:57;;;;;;;6.38;3.35;;;;;;;20.85;59.08;98142.84;5130428;28;20055;-69
2023/08/01 04:25:24;;;;;;;5.25;3.10;;;;;;;20.89;58.92;98145.00;5129727;28;20043;-69
2023/08/01 04:27:51;;;;;;;7.57;3.28;;;;;;;20.90;59.27;98145.84;5129951;28;20043;-69
2023/08/01 04:30:19;;;;;;;6.38;3.83;;;;;;;20.86;58.36;98150.75;5129789;28;20047;-69
2023/08/01 04:32:46;;;;;;;6.57;3.35;;;;;;;20.77;58.97;98149.13;5130300;28;20043;-69
2023/08/01 04:35:13;;;;;;;4.53;3.10;;;;;;;20.83;58.78;98141.19;5129523;28;20040;-69
2023/08/01 04:37:39;;;;;;;5.45;3.33;;;;;;;20.78;58.47;98148.94;5128471;28;20047;-70
2023/08/01 04:40:08;;;;;;;6.10;3.22;;;;;;;20.64;59.05;98112.03;5129449;28;20344;-69
2023/08/01 04:42:34;;;;;;;5.85;3.83;;;;;;;20.87;58.50;98141.66;5129197;28;20036;-68
2023/08/01 04:45:01;;;;;;;5.10;3.53;;;;;;;20.90;58.60;98132.38;5129611;28;20069;-68
2023/08/01 04:47:29;;;;;;;4.63;3.05;;;;;;;20.90;58.77;98132.38;5129472;28;20098;-68
2023/08/01 04:49:56;;;;;;;4.03;2.90;;;;;;;20.88;59.32;98143.34;5129555;28;20088;-69
2023/08/01 04:52:23;;;;;;;3.90;3.05;;;;;;;20.89;59.74;98139.63;5129398;27;20062;-68
2023/08/01 04:54:50;;;;;;;4.97;3.85;;;;;;;20.94;61.00;98136.38;5128631;28;20041;-69
2023/08/01 04:57:16;;;;;;;5.05;4.07;;;;;;;20.94;61.82;98133.69;5129198;28;20040;-68
2023/08/01 04:59:43;;;;;;;6.20;4.10;;;;;;;20.92;62.03;98122.25;5129256;28;20097;-68
2023/08/01 05:02:10;;;;;;;7.30;3.80;;;;;;;20.93;62.86;98123.94;5129022;28;20287;-68
2023/08/01 05:04:38;;;;;;;5.97;3.70;;;;;;;20.96;63.00;98118.19;5128041;28;20202;-68
2023/08/01 05:07:06;;;;;;;8.27;4.53;;;;;;;20.84;63.30;98101.63;5128893;28;20043;-69
2023/08/01 05:09:33;;;;;;;6.68;4.18;;;;;;;21.04;63.00;98118.16;5127935;28;20063;-69
2023/08/01 05:11:59;;;;;;;6.03;4.68;;;;;;;20.95;64.03;98113.81;5128808;28;20040;-68
2023/08/01 05:14:26;;;;;;;7.97;4.97;;;;;;;20.79;63.55;98093.25;5129331;28;20291;-68
2023/08/01 05:16:53;;;;;;;6.38;3.83;;;;;;;21.09;62.86;98113.91;5128991;27;20043;-68
2023/08/01 05:19:19;;;;;;;5.65;4.38;;;;;;;21.12;63.34;98110.84;5129006;28;20043;-69
2023/08/01 05:21:48;;;;;;;5.80;4.38;;;;;;;21.08;63.19;98106.00;5129249;27;20048;-69
2023/08/01 05:24:15;;;;;;;7.45;4.47;;;;;;;21.13;62.71;98106.31;5128870;28;20043;-69
2023/08/01 05:26:42;;;;;;;6.07;3.95;;;;;;;21.17;63.22;98117.56;5128418;28;20043;-69
2023/08/01 05:29:08;;;;;;;5.80;4.35;;;;;;;21.14;63.45;98124.97;5128448;28;20055;-69
2023/08/01 05:31:35;;;;;;;5.85;4.22;;;;;;;21.13;62.45;98130.53;5128673;28;20039;-69
2023/08/01 05:34:02;;;;;;;6.22;3.78;;;;;;;21.02;62.09;98101.31;5128393;28;20207;-69
2023/08/01 05:36:28;;;;;;;4.75;3.35;;;;;;;21.19;62.57;98134.38;5128326;28;20100;-69
2023/08/01 05:38:57;;;;;;;5.70;3.88;;;;;;;21.08;62.72;98108.69;5128224;28;20064;-69
2023/08/01 05:41:24;;;;;;;4.57;3.83;;;;;;;21.03;62.42;98103.84;5128551;28;20039;-69
2023/08/01 05:43:51;;;;;;;5.55;4.32;;;;;;;20.98;61.92;98090.06;5128503;27;20052;-69
2023/08/01 05:46:17;;;;;;;6.82;3.72;;;;;;;21.09;62.01;98118.47;5128329;28;20051;-69
2023/08/01 05:48:44;;;;;;;7.32;4.00;;;;;;;21.15;62.50;98115.03;5128038;28;20036;-69
2023/08/01 05:51:11;;;;;;;7.65;5.18;;;;;;;21.08;62.99;98119.47;5128093;28;20081;-69
2023/08/01 05:53:37;;;;;;;6.05;4.07;;;;;;;21.09;62.30;98129.22;5128255;27;20051;-68
2023/08/01 05:56:06;;;;;;;7.85;4.13;;;;;;;21.15;62.47;98123.13;5127079;28;20039;-69
2023/08/01 05:58:32;;;;;;;6.07;4.25;;;;;;;21.21;62.34;98124.25;5127035;28;20048;-69
2023/08/01 06:00:59;;;;;;;5.78;4.00;;;;;;;21.06;62.75;98094.56;5127841;28;20039;-69
2023/08/01 06:03:26;;;;;;;6.85;5.00;;;;;;;21.21;62.40;98130.47;5127854;28;20058;-69
2023/08/01 06:05:53;;;;;;;8.07;4.40;;;;;;;21.24;62.18;98130.13;5127668;28;20043;-69
2023/08/01 06:08:21;;;;;;;7.28;4.35;;;;;;;21.29;61.33;98130.41;5127591;27;20046;-69
2023/08/01 06:10:48;;;;;;;6.13;3.75;;;;;;;21.07;61.71;98101.63;5127952;28;20051;-69
2023/08/01 06:13:16;;;;;;;5.55;4.45;;;;;;;21.28;61.18;98134.13;5127628;28;20101;-69
2023/08/01 06:15:42;;;;;;;5.43;4.03;;;;;;;21.30;60.95;98128.56;5128169;28;20040;-70
2023/08/01 06:18:10;;;;;;;7.97;3.25;;;;;;;21.28;61.05;98125.19;5127758;28;20061;-70
2023/08/01 06:20:37;;;;;;;5.28;3.63;;;;;;;21.25;61.24;98122.88;5127457;28;20047;-70
2023/08/01 06:23:04;;;;;;;7.88;4.53;;;;;;;21.27;61.39;98129.75;5127418;28;20051;-70
2023/08/01 06:25:30;;;;;;;6.90;5.03;;;;;;;21.28;61.38;98128.72;5127294;28;20035;-70
2023/08/01 06:27:57;;;;;;;5.47;4.30;;;;;;;21.30;61.48;98134.78;5127529;28;20311;-70
2023/08/01 06:30:25;;;;;;;6.55;4.20;;;;;;;21.32;61.63;98135.44;5126457;28;20039;-70
2023/08/01 06:32:52;;;;;;;7.20;4.75;;;;;;;21.33;61.22;98137.09;5127578;28;20089;-70
2023/08/01 06:35:19;;;;;;;5.45;4.15;;;;;;;20.83;63.18;98057.69;5127537;27;20299;-70
2023/08/01 06:37:46;;;;;;;6.45;4.20;;;;;;;20.36;62.69;97989.78;5126008;28;20369;-70
2023/08/01 06:40:13;;;;;;;6.55;4.20;;;;;;;21.37;62.17;98153.75;5126500;28;20089;-69
2023/08/01 06:42:41;;;;;;;7.63;4.50;;;;;;;20.98;61.70;98098.16;5127743;28;20035;-71
2023/08/01 06:45:08;;;;;;;6.45;4.30;;;;;;;21.41;61.63;98152.38;5126820;28;20042;-70
2023/08/01 06:47:36;;;;;;;8.18;4.18;;;;;;;21.38;60.88;98156.25;5127303;28;20049;-70
2023/08/01 06:50:04;;;;;;;5.65;3.88;;;;;;;21.41;60.70;98155.91;5126739;28;20040;-68
2023/08/01 06:52:31;;;;;;;10.98;4.20;;;;;;;21.41;61.15;98163.97;5126722;28;20040;-68
2023/08/01 06:54:58;;;;;;;7.18;3.90;;;;;;;21.42;61.33;98162.97;5125900;28;20048;-68
2023/08/01 06:57:24;;;;;;;5.13;4.00;;;;;;;21.44;60.42;98155.53;5127071;28;20047;-68
2023/08/01 06:59:51;;;;;;;6.13;3.92;;;;;;;21.43;60.27;98158.41;5126622;28;20047;-68
2023/08/01 07:02:18;;;;;;;5.43;3.80;;;;;;;21.46;60.75;98158.88;5126675;28;20215;-68
2023/08/01 07:04:46;;;;;;;6.25;4.05;;;;;;;21.45;60.56;98159.91;5126880;28;20044;-69
2023/08/01 07:07:13;;;;;;;9.15;4.60;;;;;;;21.40;60.19;98156.91;5126708;28;20043;-70
2023/08/01 07:09:40;;;;;;;5.47;4.05;;;;;;;21.48;60.79;98149.78;5126507;28;20062;-69
2023/08/01 07:12:07;;;;;;;8.05;4.50;;;;;;;21.48;59.92;98153.31;5126463;28;20039;-69
2023/08/01 07:14:34;;;;;;;5.60;4.10;;;;;;;21.51;60.32;98147.56;5126736;28;20054;-70
2023/08/01 07:17:00;;;;;;;5.75;3.78;;;;;;;21.52;59.70;98154.63;5126013;28;20295;-69
2023/08/01 07:19:27;;;;;;;5.50;3.88;;;;;;;21.52;58.11;98153.78;5126884;28;20039;-69
2023/08/01 07:21:55;;;;;;;5.18;3.88;;;;;;;21.51;58.46;98149.41;5126562;28;20052;-69
2023/08/01 07:24:22;;;;;;;5.05;4.00;;;;;;;21.35;58.65;98131.53;5126258;28;20059;-69
2023/08/01 07:26:48;;;;;;;5.57;3.70;;;;;;;21.35;58.11;98129.69;5125211;28;20292;-69
2023/08/01 07:29:15;;;;;;;6.60;4.82;;;;;;;21.55;59.09;98156.94;5126149;28;20036;-69
2023/08/01 07:31:43;;;;;;;4.78;3.80;;;;;;;21.58;58.79;98161.97;5126555;28;20044;-69
2023/08/01 07:34:09;;;;;;;6.38;3.97;;;;;;;21.59;59.10;98162.81;5126355;28;20039;-69
2023/08/01 07:36:36;;;;;;;6.85;4.50;;;;;;;21.58;59.18;98170.06;5126647;28;20044;-69
2023/08/01 07:39:04;;;;;;;5.95;3.67;;;;;;;21.49;59.81;98141.50;5125801;28;20222;-69
2023/08/01 07:41:33;;;;;;;6.50;4.32;;;;;;;21.67;60.26;98168.13;5125358;28;20036;-69
2023/08/01 07:43:59;;;;;;;6.78;4.43;;;;;;;21.54;61.10;98140.97;5126600;28;20248;-69
2023/08/01 07:46:26;;;;;;;5.97;4.18;;;;;;;21.76;60.67;98167.84;5126465;28;20051;-68
2023/08/01 07:48:54;;;;;;;7.20;4.47;;;;;;;21.80;60.81;98162.97;5126194;28;20039;-69
2023/08/01 07:51:20;;;;;;;7.30;5.65;;;;;;;21.78;59.52;98159.59;5125624;28;20118;-69
2023/08/01 07:53:50;;;;;;;13.20;7.68;;;;;;;21.76;59.38;98158.94;5125971;28;20051;-69
2023/08/01 07:56:18;;;;;;;7.70;6.85;;;;;;;21.61;59.59;98131.94;5125613;28;20119;-70
2023/08/01 07:58:44;;;;;;;8.60;6.50;;;;;;;21.74;59.76;98163.69;5125588;28;20043;-69
2023/08/01 08:01:11;;;;;;;8.32;4.55;;;;;;;21.74;58.86;98160.97;5126032;28;20051;-69
2023/08/01 08:03:38;;;;;;;6.05;4.20;;;;;;;21.79;58.80;98169.34;5126190;28;20043;-69
2023/08/01 08:06:05;;;;;;;6.90;5.22;;;;;;;21.78;59.50;98164.97;5125441;28;20043;-69
2023/08/01 08:08:33;;;;;;;9.15;6.50;;;;;;;21.71;60.72;98154.09;5126201;28;20051;-69
2023/08/01 08:11:00;;;;;;;7.65;5.95;;;;;;;21.57;62.06;98132.50;5125004;28;20035;-69
2023/08/01 08:13:29;;;;;;;7.70;5.38;;;;;;;21.70;62.66;98159.66;5125809;28;20031;-69
2023/08/01 08:15:56;;;;;;;8.20;4.57;;;;;;;21.63;61.79;98161.44;5125705;28;20052;-69
2023/08/01 08:18:23;;;;;;;8.52;6.43;;;;;;;21.52;61.88;98160.00;5125750;28;20247;-68
2023/08/01 08:20:50;;;;;;;10.40;6.70;;;;;;;21.49;61.38;98170.31;5126234;28;20035;-69
2023/08/01 08:23:17;;;;;;;9.45;6.25;;;;;;;21.66;61.45;98177.25;5125664;28;20054;-69
2023/08/01 08:25:46;;;;;;;7.38;5.65;;;;;;;21.74;62.01;98161.81;5125857;28;20106;-69
2023/08/01 08:28:14;;;;;;;10.30;5.43;;;;;;;21.60;61.54;98132.13;5124706;28;20031;-69
2023/08/01 08:30:42;;;;;;;10.23;5.85;;;;;;;21.72;61.55;98150.38;5124785;28;20040;-69
2023/08/01 08:33:10;;;;;;;8.10;5.60;;;;;;;21.65;61.00;98127.03;5126285;28;20077;-69
2023/08/01 08:35:37;;;;;;;10.38;6.55;;;;;;;21.79;61.65;98153.16;5125860;28;20115;-68
2023/08/01 08:38:04;;;;;;;8.52;5.78;;;;;;;21.83;61.85;98150.97;5126056;28;20055;-69
2023/08/01 08:40:33;;;;;;;7.43;4.82;;;;;;;21.82;61.00;98157.38;5125819;28;20245;-68
2023/08/01 08:43:03;;;;;;;6.43;5.25;;;;;;;21.85;61.16;98162.41;5125842;28;20039;-69
2023/08/01 08:45:34;;;;;;;7.05;5.38;;;;;;;21.80;60.22;98156.72;5125867;28;20050;-69
2023/08/01 08:48:07;;;;;;;6.32;4.60;;;;;;;21.76;60.54;98153.53;5124519;28;20489;-70
2023/08/01 08:50:34;;;;;;;8.13;4.97;;;;;;;;;;5124593;28;20069;-69
2023/08/01 08:53:01;;;;;;;5.97;4.70;;;;;;;21.70;60.29;98156.97;5125619;28;20053;-69
2023/08/01 08:55:29;;;;;;;8.18;4.03;;;;;;;21.63;60.74;98112.91;5125432;28;20050;-70
2023/08/01 08:57:57;;;;;;;5.78;3.65;;;;;;;21.83;61.05;98138.31;5125393;28;20284;-69
2023/08/01 09:00:24;;;;;;;6.75;4.53;;;;;;;21.81;61.00;98131.44;5125568;28;20052;-70
2023/08/01 09:02:51;;;;;;;6.85;4.53;;;;;;;21.77;59.79;98129.09;5127422;28;20040;-69
2023/08/01 09:05:20;;;;;;;7.32;3.75;;;;;;;21.70;58.05;98135.41;5129538;28;20054;-70
2023/08/01 09:07:50;;;;;;;5.55;3.83;;;;;;;21.61;57.22;98133.81;5129450;28;20047;-69
2023/08/01 09:10:17;;;;;;;6.18;3.85;;;;;;;21.56;56.02;98128.97;5129030;28;20040;-69
2023/08/01 09:12:44;;;;;;;6.15;4.13;;;;;;;21.54;56.49;98127.47;5128728;28;20040;-70
2023/08/01 09:15:11;;;;;;;5.07;4.00;;;;;;;21.38;56.87;98099.66;5127887;28;20221;-69
2023/08/01 09:17:48;;;;;;;6.45;4.75;;;;;;;21.64;57.20;98115.41;5128413;28;20119;-70
2023/08/01 09:20:15;;;;;;;7.03;4.55;;;;;;;21.67;56.58;98114.19;5128607;28;20039;-69
2023/08/01 09:22:45;;;;;;;7.38;4.75;;;;;;;21.56;56.84;98093.09;5127686;28;20039;-69
2023/08/01 09:25:12;;;;;;;5.65;3.90;;;;;;;21.71;56.68;98123.59;5128282;28;20196;-69
2023/08/01 09:27:38;;;;;;;5.70;3.95;;;;;;;21.70;56.20;98113.84;5127664;28;20063;-69
2023/08/01 09:30:11;;;;;;;6.22;3.90;;;;;;;21.60;55.36;98107.88;5129117;28;20035;-70
2023/08/01 09:32:38;;;;;;;5.95;4.55;;;;;;;21.65;56.29;98108.16;5128545;28;20040;-70
2023/08/01 09:35:05;;;;;;;6.35;4.70;;;;;;;21.64;55.69;98114.56;5128644;28;20051;-69
2023/08/01 09:37:42;;;;;;;6.07;4.15;;;;;;;21.56;54.81;98118.19;5128332;28;20047;-70
2023/08/01 09:40:11;;;;;;;5.85;3.67;;;;;;;21.27;55.16;98069.63;5128749;28;20048;-69
2023/08/01 09:42:39;;;;;;;4.72;3.80;;;;;;;21.60;53.89;98121.34;5128494;28;20229;-70
2023/08/01 09:45:12;;;;;;;4.88;3.35;;;;;;;21.61;53.61;98117.63;5127273;28;20035;-69
2023/08/01 09:47:39;;;;;;;4.75;2.88;;;;;;;21.56;53.40;98126.28;5128045;28;20104;-69
2023/08/01 09:50:06;;;;;;;4.85;3.30;;;;;;;21.60;53.32;98121.34;5128429;28;20044;-70
2023/08/01 09:52:34;;;;;;;4.70;3.42;;;;;;;21.57;52.67;98127.13;5128015;28;20234;-70
2023/08/01 09:55:00;;;;;;;6.57;4.57;;;;;;;21.37;52.66;98091.75;5128297;28;20063;-70
2023/08/01 09:57:31;;;;;;;4.68;3.17;;;;;;;21.58;52.40;98129.63;5128110;28;20043;-70
2023/08/01 09:59:58;;;;;;;5.00;3.00;;;;;;;21.54;52.88;98132.88;5128171;28;20044;-68
2023/08/01 10:02:26;;;;;;;7.00;3.70;;;;;;;21.54;53.82;98144.50;5126973;28;20069;-68
2023/08/01 10:04:53;;;;;;;6.38;2.97;;;;;;;21.41;54.83;98145.13;5127793;28;20074;-69
2023/08/01 10:07:26;;;;;;;3.72;2.90;;;;;;;21.47;54.69;98138.16;5127968;28;20039;-69
2023/08/01 10:09:55;;;;;;;4.35;3.25;;;;;;;21.28;55.43;98120.66;5127707;28;20322;-69
2023/08/01 10:12:24;;;;;;;4.88;3.17;;;;;;;21.04;55.87;98081.28;5127339;28;20061;-69
2023/08/01 10:14:53;;;;;;;4.60;3.30;;;;;;;21.46;57.15;98150.78;5128040;28;20310;-69
2023/08/01 10:17:22;;;;;;;6.90;4.10;;;;;;;21.42;57.47;98159.44;5126677;28;20071;-69
2023/08/01 10:19:51;;;;;;;5.95;3.60;;;;;;;21.31;58.59;98158.00;5128072;28;20053;-69
2023/08/01 10:22:19;;;;;;;5.70;4.05;;;;;;;21.32;58.53;98164.22;5127134;28;20036;-68
2023/08/01 10:24:46;;;;;;;5.47;4.03;;;;;;;21.29;58.47;98149.28;5127544;28;20181;-69
2023/08/01 10:27:14;;;;;;;4.80;3.35;;;;;;;21.07;59.61;98120.50;5127087;28;20172;-69
2023/08/01 10:29:42;;;;;;;4.53;3.40;;;;;;;21.23;59.23;98136.53;5127550;28;20337;-68
2023/08/01 10:32:11;;;;;;;7.88;4.55;;;;;;;21.18;62.51;98138.94;5126474;28;20104;-69
2023/08/01 10:34:38;;;;;;;5.05;3.83;;;;;;;21.26;61.79;98135.31;5127056;28;20050;-69
2023/08/01 10:37:05;;;;;;;5.80;3.90;;;;;;;21.23;64.06;98127.59;5125962;28;20044;-69
2023/08/01 10:39:32;;;;;;;5.30;3.83;;;;;;;21.24;63.81;98130.13;5126120;28;20314;-69
2023/08/01 10:42:00;;;;;;;6.30;4.43;;;;;;;21.02;64.54;98110.25;5127280;28;20097;-69
2023/08/01 10:44:27;;;;;;;8.02;4.18;;;;;;;21.23;63.63;98141.91;5126987;28;20100;-69
2023/08/01 10:46:56;;;;;;;5.57;3.92;;;;;;;21.11;64.72;98149.59;5127635;28;20111;-69
2023/08/01 10:49:35;;;;;;;7.10;4.35;;;;;;;20.92;67.19;98141.13;5127087;28;20044;-69
2023/08/01 10:52:02;;;;;;;6.97;4.47;;;;;;;20.79;65.14;98139.00;5127227;28;20047;-70
2023/08/01 10:54:29;;;;;;;4.70;3.70;;;;;;;20.86;65.30;98142.66;5127167;28;20051;-70
2023/08/01 10:56:58;;;;;;;7.80;4.75;;;;;;;20.91;66.48;98142.13;5125895;28;20039;-70
2023/08/01 10:59:25;;;;;;;5.78;3.92;;;;;;;20.77;64.82;98120.34;5126796;28;20089;-70
2023/08/01 11:01:54;;;;;;;5.22;3.65;;;;;;;20.92;65.64;98147.34;5127038;28;20043;-70
2023/08/01 11:04:22;;;;;;;10.23;4.68;;;;;;;20.56;65.24;98155.16;5126672;28;20081;-70
2023/08/01 11:06:53;;;;;;;5.53;4.30;;;;;;;20.55;64.98;98150.78;5127097;28;20071;-69
2023/08/01 11:09:21;;;;;;;6.72;4.18;;;;;;;20.58;64.63;98142.34;5126439;28;20039;-69
2023/08/01 11:11:51;;;;;;;5.63;4.28;;;;;;;20.60;64.52;98140.31;5126818;28;20053;-70
2023/08/01 11:14:20;;;;;;;7.03;4.60;;;;;;;20.65;64.13;98153.25;5126402;28;20311;-70
2023/08/01 11:16:47;;;;;;;4.82;3.80;;;;;;;20.54;63.48;98124.88;5126288;28;20043;-70
2023/08/01 11:19:22;;;;;;;8.30;3.72;;;;;;;20.77;64.68;98141.88;5125596;28;20080;-69
2023/08/01 11:21:51;;;;;;;6.22;4.57;;;;;;;20.40;67.14;98136.38;5126682;28;20055;-70
2023/08/01 11:24:19;;;;;;;6.90;4.60;;;;;;;20.57;66.63;98137.97;5125642;28;20044;-69
2023/08/01 11:26:48;;;;;;;5.65;4.75;;;;;;;20.56;67.14;98136.31;5125296;28;20047;-70
2023/08/01 11:29:16;;;;;;;10.23;5.10;;;;;;;20.47;67.75;98132.81;5126091;28;20307;-70
2023/08/01 11:31:53;;;;;;;5.90;4.47;;;;;;;20.62;67.04;98132.91;5126436;28;20044;-70
2023/08/01 11:34:20;;;;;;;8.38;5.03;;;;;;;20.53;68.48;98133.97;5126061;28;20199;-70